Skip to main content

NOAA/GLERL Met Station at Chicago, IL

Previous 5 days (top of hour only)
See also Previous 3 Hours (2 minute increments)
Jump down to Data
Switch to [English][Metric]
Zoom: Click and drag, Pan: shift-click and drag, Unzoom: double-click, Unzoom All




Note: Speed = mean wind during 2-minute period at top of hour,
Gust = max wind during 2-minute period at top of hour,
Peak = max wind during entire hour.
• See also 5-day windrose plot


NOAA/GLERL Met Station at Chicago, IL

Previous 5 days (top of hour only)
See also Previous 3 Hours (2 minute increments)
Jump up to Graphs
Switch to [English][Metric]
                  Wind  Wind  Wind   Air   Dew   Rel
                   Spd   Gst   Dir  Temp    Pt   Hum
YYYY-MM-DD   CDT   m/s   m/s   deg     C     C     %
2024-06-15 05:00   0.1   0.5   330  20.6  19.9  95.9
2024-06-15 04:00   1.3   1.8     2  21.7  19.9  89.3
2024-06-15 03:00   3.7   4.2   354  21.3  19.4  88.9
2024-06-15 02:00   5.2   5.4   340  21.2  19.5  90.1
2024-06-15 01:00   5.6   6.2   349  21.4  18.6  83.6
2024-06-15 00:00   5.4   6.0   337  22.1  19.9  86.9
2024-06-14 23:00   5.1   5.7   342  21.4  18.4  83.0
2024-06-14 22:00   4.5   5.4   354  21.1  17.9  81.6
2024-06-14 21:00   5.2   5.7   356  21.3  17.7  79.8
2024-06-14 20:00   7.7   8.4   354  21.8  19.2  84.9
2024-06-14 19:00   9.1  10.2   357  21.5  19.0  85.7
2024-06-14 18:00   9.6  10.6   357  21.5  19.3  87.2
2024-06-14 17:00   8.6   9.6   354  21.7  19.9  89.6
2024-06-14 16:00   7.4   8.1   352  21.4  20.2  93.0
2024-06-14 15:00   5.9   6.3   352  20.5  21.1 103.8
2024-06-14 14:00   5.6   6.3    18  20.5  21.2 104.3
2024-06-14 13:00   4.4   5.0    27  21.3  21.9 103.8
2024-06-14 12:00   2.7   3.5   358  20.9  20.6  98.4
2024-06-14 11:00   7.9   8.5    14  20.8  19.9  94.7
2024-06-14 10:00   5.6   6.0     2  21.1  18.7  86.1
2024-06-14 09:00   6.4   6.9   351  21.6  18.0  79.8
2024-06-14 08:00   4.0   4.4   340  22.0  18.2  78.7
2024-06-14 07:00   3.2   3.3   348  21.9  18.0  78.1
2024-06-14 06:00   6.3   6.6   349  22.7  17.7  72.8
2024-06-14 05:00   5.6   6.4   337  25.1  18.7  67.0
2024-06-14 04:00   6.0   6.2   320  25.5  19.4  68.3
2024-06-14 03:00   5.3   5.4   315  27.1  20.2  65.4
2024-06-14 02:00   4.4   4.8   325  27.2  21.9  72.3
2024-06-14 01:00   3.9   4.3   300  27.7  24.6  83.1
2024-06-14 00:00   4.1   5.3   199  23.7  23.7  99.7
2024-06-13 23:00   0.5   0.8   146  24.4  23.9  96.8
2024-06-13 22:00   2.9   3.1   177  23.9  24.3 102.7
2024-06-13 21:00   4.7   5.5   179  23.7  24.1 102.7
2024-06-13 20:00   3.6   4.1   180  24.7  23.7  94.1
2024-06-13 19:00   5.2   5.8   168  23.9  22.4  91.0
2024-06-13 18:00   4.7   5.4   139  26.2  22.3  78.9
2024-06-13 17:00   8.3   8.4   346  30.9  21.2  55.6
2024-06-13 16:00   7.0   7.6   288  32.8  23.8  58.6
2024-06-13 15:00  11.3  12.7   274  32.3  22.9  56.9
2024-06-13 14:00   4.6   6.1   269  31.9  23.1  59.1
2024-06-13 13:00   9.3  10.6   235  31.4  22.7  59.2
2024-06-13 12:00  11.2  14.7   234  31.1  22.5  59.5
2024-06-13 11:00  12.4  14.5   226  30.1  22.2  61.9
2024-06-13 10:00  11.2  12.7   225  28.5  21.9  66.9
2024-06-13 09:00   4.9   7.1   245  26.3  21.5  74.4
2024-06-13 08:00   9.0  10.7   211  26.8  20.7  68.7
2024-06-13 07:00   9.2  10.5   210  25.8  20.5  72.1
2024-06-13 06:00   9.9  11.7   206  26.2  20.5  70.3
2024-06-13 05:00   7.5   9.0   197  25.9  20.5  71.5
2024-06-13 04:00   9.4  10.2   211  27.2  20.1  64.8
2024-06-13 03:00   8.6   9.7   221  28.2  19.9  60.1
2024-06-13 02:00   9.9  12.0   232  29.4  20.0  56.2
2024-06-13 01:00   8.4  10.5   233  30.1  19.6  52.6
2024-06-13 00:00   9.0  10.2   248  30.7  19.0  48.9
2024-06-12 23:00   5.7   6.4   264  31.3  17.8  43.7
2024-06-12 22:00   7.2   7.7   203  31.4  16.4  39.8
2024-06-12 21:00   6.9   7.0   193  32.5  15.5  35.3
2024-06-12 20:00   4.2   4.5   207  30.7  15.9  40.2
2024-06-12 19:00   5.6   6.5   178  29.4  16.8  46.0
2024-06-12 18:00   5.5   6.7   149  27.7  18.1  55.3
2024-06-12 17:00   8.3   9.1   128  26.7  18.7  60.9
2024-06-12 16:00   7.3   7.4   114  27.0  18.9  60.8
2024-06-12 16:00   7.3   7.4   114  27.0  18.9  60.8
2024-06-12 15:00   5.9   6.5   110  26.4  18.7  61.9
2024-06-12 14:00   8.2   8.5   135  29.1  17.6  49.3
2024-06-12 13:00   6.7   7.0   144  29.2  17.0  47.1
2024-06-12 12:00   4.2   5.1   167  27.9  18.1  54.6
2024-06-12 11:00   3.1   3.4   185  25.9  18.2  62.1
2024-06-12 10:00   5.4   6.2   218  25.6  17.6  60.9
2024-06-12 09:00   5.1   5.8   234  24.6  16.8  61.1
2024-06-12 08:00   9.4  11.2   232  23.7  16.5  63.4
2024-06-12 07:00  12.8  14.7   233  23.6  15.3  59.1
2024-06-12 06:00  14.7  16.5   220  23.5  14.4  56.2
2024-06-12 05:00  14.0  15.7   215  23.6  13.7  53.3
2024-06-12 04:00  14.5  16.7   217  23.8  13.0  50.1
2024-06-12 03:00  11.9  13.0   218  24.6  13.1  48.2
2024-06-12 02:00   6.6   8.9   204  23.8  12.3  48.1
2024-06-12 01:00   5.2   5.5   174  22.9  12.9  52.9
2024-06-12 00:00   6.7   7.9   170  23.1  13.5  54.3
2024-06-11 23:00   6.6   7.3   157  21.6  16.2  70.8
2024-06-11 22:00   5.5   5.9   162  21.0  17.1  78.3
2024-06-11 21:00   4.6   4.9   177  21.4  15.5  68.6
2024-06-11 20:00   4.9   5.5   196  21.1  15.2  68.8
2024-06-11 19:00   8.0   8.4   128  20.3  15.7  74.3
2024-06-11 18:00   8.4   9.2   129  20.0  15.1  72.9
2024-06-11 17:00   7.9   8.4   119  19.6  15.6  77.5
2024-06-11 16:00   8.2   8.6   104  19.6  14.6  72.6
2024-06-11 15:00   7.4   7.9   103  19.3  14.8  75.1
2024-06-11 14:00   7.2   7.7   108  18.9  14.8  77.0
2024-06-11 13:00   6.0   6.3   111  18.5  14.4  76.8
2024-06-11 12:00   5.7   5.9   103  17.9  13.7  76.3
2024-06-11 11:00   4.8   5.2   107  17.7  12.4  70.8
2024-06-11 10:00   2.9   3.3   100  17.4  11.0  65.8
2024-06-11 09:00   2.2   2.5    54  16.8  10.2  64.5
2024-06-11 08:00   1.9   2.2   300  16.3   9.4  63.3
2024-06-11 07:00   2.2   2.6   297  15.7  10.6  71.3
2024-06-11 06:00   3.7   4.1   304  15.7  10.8  72.2
2024-06-11 05:00   1.9   2.3   337  15.7  10.1  69.2
2024-06-11 04:00   3.0   3.5   327  15.8   9.4  65.6
2024-06-11 03:00   3.1   3.6   293  15.5  11.3  75.6
2024-06-11 02:00   4.8   5.3   320  16.4  10.2  66.3
2024-06-11 01:00   3.7   4.0   359  16.4   9.4  63.1
2024-06-11 00:00   4.3   4.6    21  16.4   9.9  65.0
2024-06-10 23:00   2.2   2.7   359  16.4  10.5  67.8
2024-06-10 22:00   4.1   4.6    19  16.2  11.6  73.7
2024-06-10 21:00   3.7   4.0     8  16.3  11.2  71.5
2024-06-10 20:00   4.0   4.2    13  16.8  10.4  65.4
2024-06-10 19:00   3.4   3.9     0  17.2   9.7  61.0